EGHQ Airport Information

Runway Information
Runway 12 Length 9006 ft width 285 ft Elevation 306 ft Threshold N/A Heading 121
Runway 30 Length 9006 ft Width 285 ft Elevation 390 ft Threshold N/A Heading 301
Airport Frequencies
Type APP Name APP Frequency 128.725 MHZ
Type ATIS Name ATIS Frequency 23.41 MHZ
Type DIR Name DIRECTOR Frequency 125.55 MHZ
Type GND Name GND Frequency 24.187 MHZ
Type MISC Name ZONE Frequency 25.897 MHZ
Type OPS Name OPS Frequency 27.53 MHZ
Type TWR Name TWR Frequency 123.4 MHZ
Airport Navaids
Type VOR-DME Name Lands End Frequency 114200 KHZ
Type NDB Name St Mawgan Frequency 357 KHZ
Type TACAN Name St Mawgan Frequency 112600 KHZ
Airport Weather Information & NOTAM
ADDS - METARS form results

(2011 UTC 03 December 2022)
Data provider http://aviationweather.gov/metar/data/
 
METAR text: EGHQ 031950Z AUTO 04005KT 360V110 9999 OVC023/// 06/03 Q1016
Conditions at: EGHQ (NEWQUAY , GB) observed 1950 UTC 03 December 2022
Temperature: 6.0°C (43°F)
Dewpoint: 3.0°C (37°F) [RH = 81%]
Pressure (altimeter): 30.00 inches Hg (1016.0 mb)
Winds: from the NE (40 degrees) at 6 MPH (5 knots; 2.6 m/s)
Visibility: 6 or more miles (10+ km)
Ceiling: 2300 feet AGL
Clouds: overcast cloud deck at 2300 feet AGL
Weather: no significant weather observed at this time

METAR text: EGHQ 031920Z AUTO 03005KT 360V060 9999 OVC029/// 06/03 Q1017
Conditions at: EGHQ (NEWQUAY , GB) observed 1920 UTC 03 December 2022
Temperature: 6.0°C (43°F)
Dewpoint: 3.0°C (37°F) [RH = 81%]
Pressure (altimeter): 30.03 inches Hg (1017.0 mb)
Winds: from the NNE (30 degrees) at 6 MPH (5 knots; 2.6 m/s)
Visibility: 6 or more miles (10+ km)
Ceiling: 2900 feet AGL
Clouds: overcast cloud deck at 2900 feet AGL
Weather: no significant weather observed at this time

Forecast for: EGHQ (NEWQUAY , GB)
Text: TAF EGHQ 032000Z 0321/0406 06006KT 9999 SCT020
Forecast period: 2100 UTC 03 December 2022 to 0600 UTC 04 December 2022
Forecast type: FROM: standard forecast or significant change
Winds: from the ENE (60 degrees) at 7 MPH (6 knots; 3.1 m/s)
Visibility: 6 or more miles (10+ km)
Ceiling: at least 12,000 feet AGL
Clouds: scattered clouds at 2000 feet AGL
Weather: no significant weather forecast for this period
Text: PROB30
Forecast period: 2100 UTC 03 December 2022 to 0100 UTC 04 December 2022
Forecast type: TEMPORARY: The following changes expected for less than half the time period
Visibility: missing
Ceiling: 1400 feet AGL
Clouds: broken clouds at 1400 feet AGL
Weather: no significant weather forecast for this period